createdAt,value
2023-02-07T00:00:35.456Z,10.13
2023-02-07T00:03:01.504Z,14.38
2023-02-07T00:05:28.138Z,11.13
2023-02-07T00:07:54.638Z,13.45
2023-02-07T00:10:20.838Z,10.85
2023-02-07T00:12:46.745Z,15.70
2023-02-07T00:15:12.891Z,14.30
2023-02-07T00:17:38.805Z,13.68
2023-02-07T00:20:05.409Z,11.15
2023-02-07T00:22:31.696Z,15.65
2023-02-07T00:24:57.712Z,9.73
2023-02-07T00:27:23.733Z,11.23
2023-02-07T00:29:49.548Z,11.63
2023-02-07T00:32:15.732Z,10.02
2023-02-07T00:34:41.577Z,10.63
2023-02-07T00:37:09.143Z,10.73
2023-02-07T00:39:35.223Z,10.50
2023-02-07T00:42:01.018Z,9.07
2023-02-07T00:44:26.996Z,11.15
2023-02-07T00:46:52.993Z,12.10
2023-02-07T00:49:18.886Z,12.75
2023-02-07T00:51:44.831Z,10.77
2023-02-07T00:54:10.672Z,17.42
2023-02-07T00:56:36.985Z,11.18
2023-02-07T00:59:03.377Z,10.85
2023-02-07T01:01:29.356Z,9.32
2023-02-07T01:03:55.679Z,11.52
2023-02-07T01:06:21.600Z,10.10
2023-02-07T01:08:47.611Z,11.48
2023-02-07T01:11:15.954Z,9.32
2023-02-07T01:13:43.464Z,9.98
2023-02-07T01:16:27.465Z,8.45
2023-02-07T01:18:54.295Z,12.93
2023-02-07T01:21:23.933Z,7.90
2023-02-07T01:23:50.217Z,7.80
2023-02-07T01:26:16.612Z,8.45
2023-02-07T01:28:42.669Z,6.95
2023-02-07T01:31:10.340Z,5.80
2023-02-07T01:33:36.730Z,6.88
2023-02-07T01:36:11.904Z,8.43
2023-02-07T01:38:37.957Z,8.57
2023-02-07T01:41:05.010Z,5.93
2023-02-07T01:43:31.019Z,8.20
2023-02-07T01:45:57.113Z,7.25
2023-02-07T01:48:27.447Z,6.93
2023-02-07T01:50:55.884Z,6.85
2023-02-07T01:53:24.845Z,6.25
2023-02-07T01:55:54.353Z,5.60
2023-02-07T01:58:21.790Z,4.95
2023-02-07T02:00:48.056Z,5.10
2023-02-07T02:03:14.004Z,4.47
2023-02-07T02:05:42.074Z,4.95
2023-02-07T02:08:07.920Z,3.97
2023-02-07T02:10:49.115Z,4.85
2023-02-07T02:13:23.146Z,4.07
2023-02-07T02:16:07.751Z,4.03
2023-02-07T02:19:14.755Z,4.07
2023-02-07T02:21:49.327Z,3.55
2023-02-07T02:24:17.850Z,3.08
2023-02-07T02:27:14.196Z,4.18
2023-02-07T02:32:48.233Z,5.78
2023-02-07T02:38:26.382Z,3.55
2023-02-07T02:41:12.075Z,3.65
2023-02-07T02:43:45.086Z,4.60
2023-02-07T02:46:19.547Z,4.40
2023-02-07T02:48:45.629Z,3.45
2023-02-07T02:51:11.535Z,3.47
2023-02-07T02:53:37.513Z,3.45
2023-02-07T02:56:49.817Z,4.38
2023-02-07T02:59:38.498Z,3.83
2023-02-07T03:02:15.562Z,3.00
2023-02-07T03:04:53.843Z,3.33
2023-02-07T03:07:41.127Z,3.40
2023-02-07T03:10:27.196Z,3.53
2023-02-07T03:16:01.384Z,3.10
2023-02-07T03:18:42.472Z,3.40
2023-02-07T03:21:34.991Z,3.00
2023-02-07T03:24:05.828Z,3.03
2023-02-07T03:26:33.907Z,3.17
2023-02-07T03:29:02.887Z,2.83
2023-02-07T03:31:31.210Z,2.70
2023-02-07T03:34:04.632Z,3.40
2023-02-07T03:37:05.754Z,2.97
2023-02-07T03:39:32.453Z,3.47
2023-02-07T03:42:02.872Z,3.15
2023-02-07T03:44:31.007Z,3.22
2023-02-07T03:46:58.715Z,4.20
2023-02-07T03:49:24.692Z,3.03
2023-02-07T03:51:51.308Z,3.92
2023-02-07T03:54:17.926Z,3.60
2023-02-07T03:56:43.946Z,3.53
2023-02-07T03:59:10.090Z,6.55
2023-02-07T04:01:41.169Z,5.15
2023-02-07T04:04:11.185Z,4.38
2023-02-07T04:06:37.555Z,4.47
2023-02-07T04:09:03.714Z,4.20
2023-02-07T04:11:29.588Z,4.68
2023-02-07T04:13:56.462Z,4.85
2023-02-07T04:16:22.626Z,5.03
2023-02-07T04:18:48.573Z,5.82
2023-02-07T04:21:14.405Z,5.97
2023-02-07T04:23:40.286Z,6.13
2023-02-07T04:26:06.134Z,5.82
2023-02-07T04:28:32.337Z,6.10
2023-02-07T04:30:58.346Z,5.70
2023-02-07T04:33:24.344Z,5.18
2023-02-07T04:35:57.549Z,7.97
2023-02-07T04:38:23.866Z,3.75
2023-02-07T04:40:50.130Z,4.88
2023-02-07T04:43:16.046Z,5.20
2023-02-07T04:45:41.966Z,5.85
2023-02-07T04:48:07.862Z,5.97
2023-02-07T04:50:33.765Z,4.78
2023-02-07T04:52:59.568Z,5.30
2023-02-07T04:55:25.528Z,4.57
2023-02-07T04:57:51.394Z,7.00
2023-02-07T05:00:17.660Z,4.95
2023-02-07T05:02:43.596Z,7.70
2023-02-07T05:05:09.838Z,6.15
2023-02-07T05:07:36.183Z,5.65
2023-02-07T05:10:02.148Z,4.55
2023-02-07T05:12:28.039Z,4.47
2023-02-07T05:14:54.263Z,4.22
2023-02-07T05:17:20.734Z,5.20
2023-02-07T05:19:46.819Z,3.95
2023-02-07T05:22:12.979Z,5.85
2023-02-07T05:24:38.952Z,4.95
2023-02-07T05:27:04.811Z,8.13
2023-02-07T05:29:30.810Z,7.00
2023-02-07T05:32:15.351Z,6.45
2023-02-07T05:34:41.260Z,6.57
2023-02-07T05:37:07.226Z,11.15
2023-02-07T05:39:33.161Z,7.10
2023-02-07T05:41:58.993Z,7.07
2023-02-07T05:44:24.960Z,10.07
2023-02-07T05:46:52.646Z,5.57
2023-02-07T05:49:18.655Z,6.03
2023-02-07T05:51:44.490Z,5.93
2023-02-07T05:54:10.346Z,4.88
2023-02-07T05:56:36.189Z,4.55
2023-02-07T05:59:02.068Z,4.90
2023-02-07T06:01:27.930Z,6.40
2023-02-07T06:03:53.792Z,5.35
2023-02-07T06:06:19.624Z,6.18
2023-02-07T06:08:45.468Z,4.70
2023-02-07T06:11:11.428Z,5.10
2023-02-07T06:13:38.619Z,5.45
2023-02-07T06:16:04.775Z,7.68
2023-02-07T06:18:30.699Z,6.60
2023-02-07T06:20:56.593Z,6.13
2023-02-07T06:23:22.575Z,6.30
2023-02-07T06:25:48.476Z,30.83
2023-02-07T06:28:14.409Z,35.55
2023-02-07T06:30:40.527Z,20.48
2023-02-07T06:33:06.494Z,15.80
2023-02-07T06:35:32.297Z,12.15
2023-02-07T06:37:58.167Z,17.40
2023-02-07T06:40:24.257Z,13.25
2023-02-07T06:42:50.124Z,6.22
2023-02-07T06:45:16.046Z,8.02
2023-02-07T06:47:41.984Z,6.72
2023-02-07T06:50:09.238Z,4.75
2023-02-07T06:52:35.242Z,5.10
2023-02-07T06:55:01.104Z,9.85
2023-02-07T06:57:27.085Z,14.63
2023-02-07T06:59:52.958Z,7.95
2023-02-07T07:02:18.876Z,9.27
2023-02-07T07:04:44.948Z,6.35
2023-02-07T07:07:10.768Z,5.93
2023-02-07T07:09:36.673Z,5.30
2023-02-07T07:12:03.953Z,6.97
2023-02-07T07:14:29.821Z,4.50
2023-02-07T07:16:56.867Z,4.95
2023-02-07T07:19:22.832Z,4.68
2023-02-07T07:21:48.816Z,5.32
2023-02-07T07:24:14.679Z,8.32
2023-02-07T07:26:49.367Z,7.28
2023-02-07T07:29:17.434Z,5.68
2023-02-07T07:31:44.005Z,6.03
2023-02-07T07:34:09.926Z,9.65
2023-02-07T07:36:35.857Z,13.70
2023-02-07T07:39:01.794Z,9.63
2023-02-07T07:41:27.653Z,8.80
2023-02-07T07:43:54.478Z,10.68
2023-02-07T07:46:20.755Z,11.15
2023-02-07T07:48:46.727Z,10.60
2023-02-07T07:51:12.910Z,8.77
2023-02-07T07:53:38.805Z,7.00
2023-02-07T07:56:04.968Z,6.53
2023-02-07T07:58:30.835Z,6.53
2023-02-07T08:00:56.741Z,5.30
2023-02-07T08:03:23.312Z,5.78
2023-02-07T08:05:49.598Z,5.88
2023-02-07T08:08:16.567Z,8.05
2023-02-07T08:10:42.466Z,8.40
2023-02-07T08:13:08.941Z,10.13
2023-02-07T08:15:35.431Z,6.32
2023-02-07T08:18:01.464Z,5.88
2023-02-07T08:20:27.364Z,5.60
2023-02-07T08:22:53.189Z,5.13
2023-02-07T08:25:19.096Z,5.55
2023-02-07T08:27:44.913Z,7.45
2023-02-07T08:30:12.493Z,5.95
2023-02-07T08:32:39.252Z,6.07
2023-02-07T08:35:06.020Z,5.47
2023-02-07T08:37:31.876Z,5.90
2023-02-07T08:39:57.738Z,5.90
2023-02-07T08:42:24.248Z,4.95
2023-02-07T08:44:50.301Z,5.60
2023-02-07T08:47:17.968Z,5.32
2023-02-07T08:49:44.638Z,4.32
2023-02-07T08:52:11.818Z,5.07
2023-02-07T08:54:37.606Z,3.22
2023-02-07T08:57:04.166Z,3.65
2023-02-07T08:59:30.151Z,3.47
2023-02-07T09:01:56.078Z,3.30
2023-02-07T09:04:22.246Z,3.38
2023-02-07T09:06:48.248Z,3.60
2023-02-07T09:09:14.156Z,7.63
2023-02-07T09:11:40.159Z,6.30
2023-02-07T09:14:06.082Z,4.68
2023-02-07T09:16:32.378Z,5.25
2023-02-07T09:18:58.415Z,5.85
2023-02-07T09:21:24.486Z,4.88
2023-02-07T09:23:50.367Z,5.07
2023-02-07T09:26:18.869Z,2.90
2023-02-07T09:28:44.808Z,2.47
2023-02-07T09:31:12.266Z,2.55
2023-02-07T09:33:39.149Z,3.97
2023-02-07T09:36:05.714Z,2.50
2023-02-07T09:38:32.100Z,2.60
2023-02-07T09:40:58.605Z,3.03
2023-02-07T09:43:54.012Z,5.63
2023-02-07T09:46:34.059Z,6.40
2023-02-07T09:49:04.190Z,5.00
2023-02-07T09:51:33.619Z,3.22
2023-02-07T09:54:03.800Z,3.08
2023-02-07T09:56:31.959Z,3.70
2023-02-07T09:59:24.108Z,4.15
2023-02-07T10:01:55.579Z,7.53
2023-02-07T10:04:29.742Z,6.13
2023-02-07T10:06:58.807Z,6.55
2023-02-07T10:09:28.417Z,2.30
2023-02-07T10:12:04.731Z,1.77
2023-02-07T10:14:42.539Z,3.10
2023-02-07T10:17:39.174Z,1.50
2023-02-07T10:20:37.707Z,1.98
2023-02-07T10:23:09.936Z,1.20
2023-02-07T10:26:00.810Z,1.95
2023-02-07T10:28:57.066Z,1.83
2023-02-07T10:31:25.229Z,1.20
2023-02-07T10:34:01.888Z,1.52
2023-02-07T10:36:33.055Z,2.03
2023-02-07T10:39:09.509Z,1.20
2023-02-07T10:41:38.266Z,1.13
2023-02-07T10:44:13.207Z,1.00
2023-02-07T10:46:42.554Z,4.53
2023-02-07T10:49:24.803Z,2.00
2023-02-07T10:51:51.424Z,2.97
2023-02-07T10:54:20.136Z,1.35
2023-02-07T10:56:50.126Z,1.10
2023-02-07T10:59:37.935Z,1.55
2023-02-07T11:02:32.498Z,2.35
2023-02-07T11:05:03.219Z,1.00
2023-02-07T11:07:39.447Z,0.98
2023-02-07T11:10:24.671Z,1.02
2023-02-07T11:12:56.939Z,2.40
2023-02-07T11:15:39.118Z,1.33
2023-02-07T11:18:05.730Z,1.50
2023-02-07T11:20:35.757Z,0.75
2023-02-07T11:23:07.286Z,2.72
2023-02-07T11:25:41.489Z,1.38
2023-02-07T11:28:15.540Z,2.63
2023-02-07T11:30:41.480Z,4.45
2023-02-07T11:33:18.699Z,3.75
2023-02-07T11:36:06.241Z,3.63
2023-02-07T11:38:38.624Z,1.98
2023-02-07T11:41:06.292Z,1.45
2023-02-07T11:43:34.395Z,2.03
2023-02-07T11:46:06.364Z,1.15
2023-02-07T11:48:39.538Z,1.58
2023-02-07T11:51:07.659Z,1.40
2023-02-07T11:53:41.055Z,1.20
2023-02-07T11:56:22.025Z,1.40
2023-02-07T11:58:49.011Z,2.50
2023-02-07T12:01:17.520Z,1.85
2023-02-07T12:03:57.839Z,1.52
2023-02-07T12:06:30.504Z,1.75
2023-02-07T12:08:57.680Z,3.80
2023-02-07T12:11:28.998Z,1.67
2023-02-07T12:14:25.374Z,1.20
2023-02-07T12:16:58.865Z,4.13
2023-02-07T12:19:32.507Z,2.92
2023-02-07T12:22:14.043Z,1.00
2023-02-07T12:24:44.899Z,1.42
2023-02-07T12:27:15.028Z,1.30
2023-02-07T12:29:56.542Z,2.00
2023-02-07T12:32:53.972Z,1.77
2023-02-07T12:35:58.860Z,1.60
2023-02-07T12:38:51.058Z,2.83
2023-02-07T12:41:42.207Z,1.33
2023-02-07T12:44:31.747Z,2.03
2023-02-07T12:47:08.442Z,1.40
2023-02-07T12:49:58.891Z,1.83
2023-02-07T12:52:58.820Z,1.48
2023-02-07T12:55:50.387Z,1.55
2023-02-07T12:58:31.585Z,1.52
2023-02-07T13:01:27.347Z,1.60
2023-02-07T13:04:05.238Z,1.30
2023-02-07T13:07:07.576Z,1.30
2023-02-07T13:10:01.922Z,3.38
2023-02-07T13:12:47.918Z,1.80
2023-02-07T13:15:40.447Z,1.95
2023-02-07T13:18:15.030Z,1.40
2023-02-07T13:21:08.854Z,2.13
2023-02-07T13:23:39.972Z,1.50
2023-02-07T13:26:20.707Z,1.80
2023-02-07T13:28:58.798Z,1.40
2023-02-07T13:31:42.877Z,1.90
2023-02-07T13:34:21.772Z,3.37
2023-02-07T13:36:49.168Z,1.60
2023-02-07T13:39:37.410Z,1.67
2023-02-07T13:42:20.949Z,1.90
2023-02-07T13:45:20.507Z,1.83
2023-02-07T13:48:18.286Z,1.75
2023-02-07T13:51:04.699Z,2.15
2023-02-07T13:53:45.876Z,2.58
2023-02-07T13:56:32.680Z,2.10
2023-02-07T13:59:18.005Z,2.10
2023-02-07T14:01:53.075Z,2.13
2023-02-07T14:04:20.896Z,2.75
2023-02-07T14:06:52.722Z,2.65
2023-02-07T14:09:28.842Z,2.38
2023-02-07T14:12:00.603Z,3.35
2023-02-07T14:14:36.126Z,3.25
2023-02-07T14:19:38.520Z,5.28
2023-02-07T14:22:32.026Z,3.30
2023-02-07T14:24:57.853Z,4.70
2023-02-07T14:27:41.703Z,2.70
2023-02-07T14:30:19.878Z,2.70
2023-02-07T14:33:07.783Z,2.85
2023-02-07T14:35:44.259Z,3.30
2023-02-07T14:38:21.722Z,3.55
2023-02-07T14:41:09.599Z,3.42
2023-02-07T14:43:41.507Z,2.33
2023-02-07T14:46:15.689Z,3.72
2023-02-07T14:48:58.360Z,2.80
2023-02-07T14:51:30.317Z,3.60
2023-02-07T14:54:07.712Z,3.85
2023-02-07T14:56:45.441Z,3.83
2023-02-07T14:59:22.955Z,4.95
2023-02-07T15:01:48.930Z,4.50
2023-02-07T15:04:16.341Z,4.45
2023-02-07T15:06:45.219Z,3.75
2023-02-07T15:09:21.321Z,3.22
2023-02-07T15:11:54.040Z,3.95
2023-02-07T15:14:32.897Z,3.78
2023-02-07T15:16:59.951Z,3.53
2023-02-07T15:19:38.204Z,5.25
2023-02-07T15:22:14.201Z,4.47
2023-02-07T15:24:51.837Z,3.95
2023-02-07T15:27:22.049Z,4.28
2023-02-07T15:29:59.154Z,3.88
2023-02-07T15:32:29.901Z,4.38
2023-02-07T15:34:57.165Z,5.30
2023-02-07T15:37:25.690Z,3.22
2023-02-07T15:39:53.713Z,4.07
2023-02-07T15:42:20.757Z,4.72
2023-02-07T15:44:55.128Z,3.83
2023-02-07T15:47:26.895Z,4.32
2023-02-07T15:50:00.065Z,4.25
2023-02-07T15:52:54.122Z,4.65
2023-02-07T15:55:34.169Z,4.07
2023-02-07T15:58:01.680Z,4.88
2023-02-07T16:00:31.178Z,4.90
2023-02-07T16:03:05.113Z,4.35
2023-02-07T16:05:37.266Z,3.50
2023-02-07T16:08:08.331Z,6.50
2023-02-07T16:10:39.543Z,5.20
2023-02-07T16:13:20.803Z,6.70
2023-02-07T16:15:58.821Z,6.07
2023-02-07T16:18:42.568Z,4.95
2023-02-07T16:21:29.409Z,4.18
2023-02-07T16:24:04.615Z,3.67
2023-02-07T16:26:30.880Z,7.53
2023-02-07T16:28:56.832Z,4.05
2023-02-07T16:31:23.254Z,4.60
2023-02-07T16:33:49.204Z,4.78
2023-02-07T16:36:17.749Z,5.53
2023-02-07T16:38:44.503Z,4.15
2023-02-07T16:41:30.648Z,5.20
2023-02-07T16:43:58.477Z,6.43
2023-02-07T16:46:25.008Z,8.25
2023-02-07T16:48:51.307Z,5.32
2023-02-07T16:51:17.151Z,4.80
2023-02-07T16:53:43.612Z,5.53
2023-02-07T16:56:17.124Z,7.38
2023-02-07T16:58:43.038Z,4.80
2023-02-07T17:01:16.847Z,8.48
2023-02-07T17:03:42.767Z,9.32
2023-02-07T17:06:21.273Z,6.47
2023-02-07T17:08:48.052Z,5.72
2023-02-07T17:11:25.628Z,4.53
2023-02-07T17:13:56.767Z,4.55
2023-02-07T17:16:23.801Z,5.13
2023-02-07T17:18:50.677Z,5.60
2023-02-07T17:21:17.634Z,6.38
2023-02-07T17:23:45.355Z,7.30
2023-02-07T17:26:31.580Z,6.07
2023-02-07T17:28:58.197Z,5.47
2023-02-07T17:31:24.285Z,4.88
2023-02-07T17:33:55.725Z,6.30
2023-02-07T17:36:21.952Z,4.80
2023-02-07T17:38:47.828Z,5.68
2023-02-07T17:41:14.858Z,6.47
2023-02-07T17:43:41.344Z,4.68
2023-02-07T17:46:17.338Z,4.50
2023-02-07T17:48:46.728Z,4.53
2023-02-07T17:51:17.843Z,6.43
2023-02-07T17:53:43.940Z,4.93
2023-02-07T17:56:24.088Z,6.75
2023-02-07T17:58:51.145Z,5.07
2023-02-07T18:01:18.756Z,5.38
2023-02-07T18:03:48.909Z,4.30
2023-02-07T18:06:16.960Z,5.18
2023-02-07T18:08:44.073Z,5.28
2023-02-07T18:11:13.545Z,5.32
2023-02-07T18:13:41.336Z,6.90
2023-02-07T18:16:08.122Z,7.18
2023-02-07T18:18:34.835Z,7.38
2023-02-07T18:21:02.967Z,7.72
2023-02-07T18:23:28.980Z,8.32
2023-02-07T18:25:54.920Z,7.82
2023-02-07T18:28:20.863Z,9.73
2023-02-07T18:30:47.122Z,9.63
2023-02-07T18:33:14.538Z,8.85
2023-02-07T18:35:40.641Z,6.43
2023-02-07T18:38:06.777Z,8.02
2023-02-07T18:40:32.816Z,9.20
2023-02-07T18:42:58.835Z,11.35
2023-02-07T18:45:24.974Z,11.15
2023-02-07T18:47:51.479Z,12.77
2023-02-07T18:50:20.226Z,8.90
2023-02-07T18:52:47.250Z,9.30
2023-02-07T18:55:13.266Z,7.50
2023-02-07T18:57:39.183Z,6.03
2023-02-07T19:00:07.286Z,7.35
2023-02-07T19:02:33.208Z,7.50
2023-02-07T19:04:59.290Z,6.13
2023-02-07T19:07:25.311Z,5.90
2023-02-07T19:09:51.204Z,5.90
2023-02-07T19:12:17.265Z,4.85
2023-02-07T19:14:43.363Z,5.10
2023-02-07T19:17:09.559Z,5.43
2023-02-07T19:19:36.211Z,5.57
2023-02-07T19:22:02.481Z,6.30
2023-02-07T19:24:29.052Z,5.97
2023-02-07T19:26:57.855Z,7.03
2023-02-07T19:29:29.924Z,5.65
2023-02-07T19:32:05.585Z,7.90
2023-02-07T19:34:32.649Z,7.82
2023-02-07T19:36:58.799Z,7.05
2023-02-07T19:39:25.739Z,6.45
2023-02-07T19:41:51.642Z,8.07
2023-02-07T19:44:17.715Z,6.40
2023-02-07T19:46:44.668Z,7.75
2023-02-07T19:49:12.718Z,6.78
2023-02-07T19:51:39.226Z,7.45
2023-02-07T19:54:05.491Z,9.80
2023-02-07T19:56:32.873Z,8.02
2023-02-07T19:59:02.364Z,8.43
2023-02-07T20:01:29.415Z,7.28
2023-02-07T20:03:56.237Z,9.90
2023-02-07T20:06:28.426Z,11.23
2023-02-07T20:08:56.221Z,8.18
2023-02-07T20:11:22.336Z,11.15
2023-02-07T20:13:53.743Z,10.13
2023-02-07T20:16:22.650Z,10.23
2023-02-07T20:18:49.607Z,11.68
2023-02-07T20:21:19.723Z,12.45
2023-02-07T20:23:48.278Z,9.45
2023-02-07T20:26:17.636Z,7.38
2023-02-07T20:28:45.595Z,6.53
2023-02-07T20:31:14.880Z,6.35
2023-02-07T20:33:41.786Z,7.80
2023-02-07T20:36:09.662Z,8.60
2023-02-07T20:38:35.919Z,10.38
2023-02-07T20:41:28.312Z,20.75
2023-02-07T20:43:59.170Z,24.77
2023-02-07T20:46:26.632Z,21.13
2023-02-07T20:49:01.977Z,17.25
2023-02-07T20:51:29.189Z,11.48
2023-02-07T20:53:57.293Z,8.23
2023-02-07T20:56:24.216Z,9.30
2023-02-07T20:58:50.480Z,8.63
2023-02-07T21:01:19.168Z,8.85
2023-02-07T21:03:46.850Z,7.28
2023-02-07T21:06:13.162Z,8.40
2023-02-07T21:08:39.943Z,7.30
2023-02-07T21:11:07.637Z,7.93
2023-02-07T21:13:34.926Z,8.25
2023-02-07T21:16:05.773Z,6.57
2023-02-07T21:18:33.177Z,5.38
2023-02-07T21:20:59.806Z,6.15
2023-02-07T21:23:26.774Z,7.00
2023-02-07T21:25:54.114Z,6.88
2023-02-07T21:28:20.575Z,9.48
2023-02-07T21:30:47.090Z,4.60
2023-02-07T21:33:14.045Z,4.93
2023-02-07T21:35:40.382Z,7.82
2023-02-07T21:38:07.020Z,5.82
2023-02-07T21:40:34.511Z,4.30
2023-02-07T21:43:01.378Z,4.30
2023-02-07T21:45:27.909Z,4.68
2023-02-07T21:47:55.242Z,5.97
2023-02-07T21:50:21.920Z,4.32
2023-02-07T21:52:47.916Z,4.72
2023-02-07T21:55:14.013Z,5.53
2023-02-07T21:57:40.011Z,5.50
2023-02-07T22:00:07.528Z,4.35
2023-02-07T22:02:33.824Z,4.85
2023-02-07T22:04:59.810Z,4.53
2023-02-07T22:07:25.703Z,4.63
2023-02-07T22:09:51.689Z,3.75
2023-02-07T22:12:17.585Z,5.15
2023-02-07T22:14:43.469Z,4.70
2023-02-07T22:17:10.561Z,4.88
2023-02-07T22:19:36.523Z,5.47
2023-02-07T22:22:02.430Z,5.75
2023-02-07T22:24:31.034Z,3.45
2023-02-07T22:26:56.967Z,5.68
2023-02-07T22:29:22.842Z,4.75
2023-02-07T22:31:48.903Z,5.78
2023-02-07T22:34:15.109Z,4.68
2023-02-07T22:36:42.588Z,5.55
2023-02-07T22:39:10.293Z,3.90
2023-02-07T22:41:36.168Z,5.97
2023-02-07T22:44:02.846Z,4.40
2023-02-07T22:46:29.685Z,4.65
2023-02-07T22:48:55.767Z,4.60
2023-02-07T22:51:24.876Z,4.53
2023-02-07T22:53:54.105Z,4.43
2023-02-07T22:56:20.976Z,5.10
2023-02-07T22:58:47.061Z,5.15
2023-02-07T23:01:33.798Z,3.78
2023-02-07T23:04:03.288Z,4.63
2023-02-07T23:06:31.780Z,5.18
2023-02-07T23:08:58.363Z,4.95
2023-02-07T23:11:24.427Z,4.95
2023-02-07T23:13:51.944Z,4.35
2023-02-07T23:16:20.710Z,5.22
2023-02-07T23:18:47.482Z,4.82
2023-02-07T23:21:16.718Z,4.35
2023-02-07T23:23:43.336Z,6.40
2023-02-07T23:26:14.388Z,4.65
2023-02-07T23:28:40.989Z,4.80
2023-02-07T23:31:10.237Z,6.00
2023-02-07T23:33:36.406Z,5.22
2023-02-07T23:36:03.588Z,4.60
2023-02-07T23:38:29.526Z,4.03
2023-02-07T23:40:56.116Z,6.07
2023-02-07T23:43:22.543Z,6.05
2023-02-07T23:45:48.388Z,5.47
2023-02-07T23:48:14.300Z,4.25
2023-02-07T23:50:40.362Z,5.38
2023-02-07T23:53:06.411Z,6.53
2023-02-07T23:55:32.337Z,6.97
2023-02-07T23:57:58.157Z,3.88
